KRTN

Raton Municipal / Crews Field Airport

Raton, New Mexico, USA
METAR KRTN 151353Z AUTO 00000KT 7SM CLR 15/13 A3025 RMK AO2 SLP158 T01500133
Observed Flight Rules
Aug-15 @ 13:53 UTC (an hour ago) Visual Flight Rules
Visibility Clouds
7 miles
  • Clear skies
Temperatures Readings
Current 15°C / 59°F
Dewpoint 13°C / 55°F
Humidity 88%
Altimeter 30.25" Hg
Pressure 1015.8 hPa
Elevation 1936
METAR KRTN 151353Z AUTO 00000KT 7SM CLR 15/13 A3025 RMK AO2 SLP158 T01500133
Observed Flight Rules
Aug-15 @ 13:53 UTC
(an hour ago)
VFR
Clouds
  • Clear skies
Temperature Dewpoint
15°C / 59°F 13°C / 55°F
Humidity Altimeter Pressure
88% 30.25" Hg 1015.8 hPa